Time;durP1;ratioP1;P1;durP2;ratioP2;P2;SDS_P1;SDS_P2;PMS_P1;PMS_P2;Temp;Humidity;BMP_temperature;BMP_pressure;BME280_temperature;BME280_humidity;BME280_pressure;Samples;Min_cycle;Max_cycle;Signal;HPM_P1;HPM_P2
2021/06/08 00:01:25;;;;;;;2.08;1.72;;;;;;;12.91;100.00;100246.78;1724289;82;21000;-85
2021/06/08 00:03:51;;;;;;;2.90;2.05;;;;;;;12.94;100.00;100244.56;1724382;82;21642;-85
2021/06/08 00:06:18;;;;;;;1.95;1.55;;;;;;;12.96;100.00;100243.67;1719233;81;20998;-83
2021/06/08 00:08:45;;;;;;;2.75;2.35;;;;;;;12.96;100.00;100246.41;1718608;83;21478;-83
2021/06/08 00:11:11;;;;;;;2.70;2.20;;;;;;;12.98;100.00;100246.94;1701825;83;21002;-83
2021/06/08 00:13:37;;;;;;;2.10;1.85;;;;;;;13.00;100.00;100251.00;1702833;82;21022;-83
2021/06/08 00:16:04;;;;;;;2.35;1.52;;;;;;;13.03;100.00;100239.98;1715579;83;21027;-83
2021/06/08 00:18:33;;;;;;;3.30;1.80;;;;;;;13.02;100.00;100237.00;1716236;83;21000;-84
2021/06/08 00:21:00;;;;;;;1.05;0.90;;;;;;;13.00;100.00;100231.80;1716528;83;21011;-83
2021/06/08 00:23:26;;;;;;;1.70;1.60;;;;;;;12.97;100.00;100231.05;1729421;81;20999;-83
2021/06/08 00:25:53;;;;;;;1.85;1.72;;;;;;;12.94;100.00;100234.95;1753537;81;20991;-83
2021/06/08 00:28:20;;;;;;;2.67;1.37;;;;;;;12.91;100.00;100234.44;1753727;81;21421;-83
2021/06/08 00:30:46;;;;;;;2.95;1.85;;;;;;;12.90;100.00;100239.65;1753522;81;21058;-83
2021/06/08 00:33:12;;;;;;;2.47;2.17;;;;;;;12.91;100.00;100239.92;1734562;81;21470;-83
2021/06/08 00:35:39;;;;;;;2.25;1.50;;;;;;;12.89;100.00;100235.29;1722262;82;21045;-83
2021/06/08 00:38:05;;;;;;;1.80;1.70;;;;;;;12.89;100.00;100240.77;1722744;83;21041;-83
2021/06/08 00:40:31;;;;;;;2.08;1.75;;;;;;;12.89;100.00;100238.03;1693536;82;21018;-83
2021/06/08 00:42:58;;;;;;;1.90;1.55;;;;;;;12.91;100.00;100238.55;1750468;81;21449;-83
2021/06/08 00:45:26;;;;;;;3.12;1.82;;;;;;;12.91;100.00;100233.63;1753351;81;21015;-83
2021/06/08 00:47:53;;;;;;;2.77;1.65;;;;;;;12.90;100.00;100231.98;1753798;81;21007;-83
2021/06/08 00:50:19;;;;;;;2.10;1.80;;;;;;;12.90;100.00;100233.35;1753346;81;20987;-84
2021/06/08 00:52:46;;;;;;;3.45;2.05;;;;;;;12.90;100.00;100234.16;1753326;81;21026;-83
2021/06/08 00:55:13;;;;;;;2.87;1.82;;;;;;;12.91;100.00;100234.44;1753429;81;20999;-83
2021/06/08 00:57:39;;;;;;;2.47;1.32;;;;;;;12.92;100.00;100235.24;1753425;81;21469;-83
2021/06/08 01:00:07;;;;;;;3.80;1.92;;;;;;;12.95;100.00;100234.64;1753261;81;21038;-83
2021/06/08 01:02:34;;;;;;;3.00;1.62;;;;;;;13.00;100.00;100235.92;1754371;81;20999;-83
2021/06/08 01:05:05;;;;;;;3.60;1.95;;;;;;;13.06;100.00;100247.08;1753496;81;21025;-83
2021/06/08 01:07:34;;;;;;;2.58;1.92;;;;;;;13.09;100.00;100242.35;1753369;81;20976;-83
2021/06/08 01:10:03;;;;;;;3.85;2.33;;;;;;;13.15;100.00;100245.81;1730561;81;21013;-83
2021/06/08 01:12:30;;;;;;;2.67;2.02;;;;;;;13.16;100.00;100243.34;1722429;82;20993;-84
2021/06/08 01:14:56;;;;;;;4.40;2.37;;;;;;;13.17;100.00;100244.95;1722522;83;21650;-83
2021/06/08 01:17:23;;;;;;;1.87;1.67;;;;;;;13.19;100.00;100243.30;1722700;82;21009;-83
2021/06/08 01:19:49;;;;;;;2.42;1.70;;;;;;;13.20;100.00;100249.02;1753775;81;20992;-83
2021/06/08 01:22:16;;;;;;;2.30;1.62;;;;;;;13.22;100.00;100248.98;1746545;81;21612;-83
2021/06/08 01:24:44;;;;;;;2.08;1.37;;;;;;;13.25;100.00;100246.19;1753312;81;21484;-83
2021/06/08 01:27:10;;;;;;;4.65;2.37;;;;;;;13.27;100.00;100246.73;1753585;81;21004;-83
2021/06/08 01:29:38;;;;;;;2.15;1.62;;;;;;;13.30;100.00;100246.12;1723768;81;21082;-83
2021/06/08 01:32:05;;;;;;;2.00;1.80;;;;;;;13.30;100.00;100238.73;1753498;81;21603;-83
2021/06/08 01:34:32;;;;;;;1.95;1.27;;;;;;;13.34;100.00;100244.41;1753451;81;20987;-83
2021/06/08 01:36:58;;;;;;;2.65;1.70;;;;;;;13.38;100.00;100254.21;1736661;81;21069;-83
2021/06/08 01:39:25;;;;;;;2.17;1.67;;;;;;;13.41;100.00;100256.38;1724173;83;20981;-83
2021/06/08 01:41:51;;;;;;;2.33;1.80;;;;;;;13.45;100.00;100252.73;1722389;82;21027;-83
2021/06/08 01:44:18;;;;;;;2.27;1.85;;;;;;;13.48;100.00;100256.80;1693777;83;21049;-83
2021/06/08 01:46:44;;;;;;;3.62;2.22;;;;;;;13.51;100.00;100252.06;1722241;81;20961;-83
2021/06/08 01:49:10;;;;;;;4.17;2.62;;;;;;;13.54;100.00;100256.94;1722319;83;21060;-83
2021/06/08 01:51:51;;;;;;;2.50;2.22;;;;;;;13.56;100.00;100258.83;1722398;82;21879;-84
2021/06/08 01:54:48;;;;;;;2.52;1.62;;;;;;;13.59;100.00;100259.58;1719507;81;21002;-83
2021/06/08 01:57:21;;;;;;;2.35;1.85;;;;;;;13.62;100.00;100260.34;1718057;83;21021;-83
2021/06/08 01:59:56;;;;;;;6.72;2.15;;;;;;;13.66;100.00;100260.56;1708005;84;21040;-83
2021/06/08 02:02:46;;;;;;;2.75;2.00;;;;;;;13.69;100.00;100261.31;1717650;83;21551;-83
2021/06/08 02:05:26;;;;;;;1.50;1.35;;;;;;;13.73;100.00;100263.72;1734436;81;21440;-84
2021/06/08 02:08:07;;;;;;;2.40;1.72;;;;;;;13.78;100.00;100266.93;1722937;83;21073;-83
2021/06/08 02:11:03;;;;;;;5.58;1.95;;;;;;;13.80;100.00;100264.66;1712178;82;20984;-83
2021/06/08 02:13:47;;;;;;;3.33;2.00;;;;;;;13.84;100.00;100267.06;1710418;82;21043;-83
2021/06/08 02:16:23;;;;;;;2.10;1.90;;;;;;;13.86;100.00;100260.14;1711485;83;21808;-84
2021/06/08 02:18:50;;;;;;;5.70;2.80;;;;;;;13.88;100.00;100257.91;1711132;83;20997;-83
2021/06/08 02:21:25;;;;;;;2.87;2.15;;;;;;;13.90;100.00;100257.62;1710792;83;20985;-83
2021/06/08 02:23:52;;;;;;;2.58;1.95;;;;;;;13.93;100.00;100258.37;1711017;83;21001;-83
2021/06/08 02:26:19;;;;;;;3.12;1.98;;;;;;;13.95;100.00;100260.25;1718161;83;20990;-83
2021/06/08 02:28:46;;;;;;;2.33;1.95;;;;;;;13.98;100.00;100263.75;1684967;83;21016;-83
2021/06/08 02:31:13;;;;;;;2.90;2.35;;;;;;;14.01;100.00;100257.64;1711355;82;21009;-83
2021/06/08 02:33:39;;;;;;;2.17;1.95;;;;;;;14.04;100.00;100269.38;1695183;83;21061;-83
2021/06/08 02:36:06;;;;;;;3.17;1.90;;;;;;;14.07;100.00;100275.66;1711333;82;21037;-83
2021/06/08 02:38:33;;;;;;;2.77;2.58;;;;;;;14.09;100.00;100271.22;1695457;83;21456;-83
2021/06/08 02:41:00;;;;;;;2.87;2.12;;;;;;;14.11;100.00;100267.03;1705796;82;21068;-84
2021/06/08 02:43:29;;;;;;;3.65;2.85;;;;;;;14.15;100.00;100272.75;1741184;82;21013;-83
2021/06/08 02:45:55;;;;;;;5.75;2.08;;;;;;;14.17;100.00;100265.83;1761839;80;21055;-83
2021/06/08 02:48:21;;;;;;;2.65;2.25;;;;;;;14.20;100.00;100270.70;1760149;81;21991;-83
2021/06/08 02:50:48;;;;;;;2.62;2.25;;;;;;;14.24;100.00;100273.63;1711834;81;21164;-83
2021/06/08 02:53:15;;;;;;;2.52;1.60;;;;;;;14.27;100.00;100273.03;1710925;83;21088;-83
2021/06/08 02:55:42;;;;;;;2.45;1.90;;;;;;;14.30;100.00;100273.78;1710568;82;21427;-83
2021/06/08 02:58:08;;;;;;;2.00;1.70;;;;;;;14.37;100.00;100267.87;1730220;82;21041;-83
2021/06/08 03:00:34;;;;;;;2.58;2.05;;;;;;;14.41;100.00;100264.73;1729630;81;21021;-83
2021/06/08 03:03:02;;;;;;;2.95;1.30;;;;;;;14.47;100.00;100269.02;1715065;82;20984;-83
2021/06/08 03:05:34;;;;;;;3.15;1.57;;;;;;;14.54;100.00;100262.56;1759991;80;22004;-83
2021/06/08 03:08:05;;;;;;;4.12;2.75;;;;;;;14.63;100.00;100267.55;1762304;81;21013;-83
2021/06/08 03:10:35;;;;;;;3.10;2.33;;;;;;;14.76;100.00;100276.06;1735835;81;21013;-83
2021/06/08 03:13:01;;;;;;;2.20;2.00;;;;;;;14.86;100.00;100272.25;1731706;82;21007;-83
2021/06/08 03:15:35;;;;;;;2.98;2.20;;;;;;;14.98;100.00;100272.50;1730119;82;20901;-83
2021/06/08 03:18:08;;;;;;;7.67;3.40;;;;;;;15.12;100.00;100273.82;1761029;81;21490;-83
2021/06/08 03:20:38;;;;;;;2.02;1.82;;;;;;;15.25;100.00;100277.05;1736812;80;20997;-83
2021/06/08 03:23:06;;;;;;;1.67;1.50;;;;;;;15.39;100.00;100278.35;1762099;81;21444;-82
2021/06/08 03:25:34;;;;;;;3.50;2.08;;;;;;;15.51;100.00;100275.83;1762665;80;21001;-83
2021/06/08 03:28:01;;;;;;;2.00;1.70;;;;;;;15.63;100.00;100274.67;1761835;81;21069;-83
2021/06/08 03:30:28;;;;;;;3.08;2.02;;;;;;;15.73;100.00;100273.61;1711953;80;20987;-84
2021/06/08 03:32:54;;;;;;;3.00;1.92;;;;;;;15.83;100.00;100271.94;1736401;81;21043;-83
2021/06/08 03:35:22;;;;;;;4.12;1.82;;;;;;;15.94;100.00;100270.27;1736384;81;21198;-83
2021/06/08 03:37:48;;;;;;;2.55;2.25;;;;;;;16.04;100.00;100272.72;1731729;82;21026;-83
2021/06/08 03:40:15;;;;;;;3.45;2.02;;;;;;;16.15;100.00;100271.30;1759864;81;21381;-83
2021/06/08 03:42:42;;;;;;;2.25;1.62;;;;;;;16.24;100.00;100274.06;1701397;83;21185;-83
2021/06/08 03:45:14;;;;;;;3.75;2.95;;;;;;;16.27;100.00;100278.92;1722584;82;20976;-83
2021/06/08 03:47:41;;;;;;;3.40;2.12;;;;;;;16.24;100.00;100279.00;1711559;83;21045;-83
2021/06/08 03:50:09;;;;;;;2.87;2.25;;;;;;;16.17;100.00;100274.55;1728868;83;20994;-83
2021/06/08 03:52:35;;;;;;;2.40;2.20;;;;;;;16.09;100.00;100278.89;1686218;83;21052;-83
2021/06/08 03:55:04;;;;;;;2.62;2.12;;;;;;;16.02;100.00;100280.48;1731940;81;21013;-84
2021/06/08 03:57:33;;;;;;;4.72;2.45;;;;;;;15.95;100.00;100285.66;1731715;82;21454;-83
2021/06/08 03:59:58;;;;;;;3.20;2.10;;;;;;;15.89;100.00;100287.18;1679012;84;20985;-83
2021/06/08 04:02:24;;;;;;;4.87;3.35;;;;;;;15.87;100.00;100292.77;1705639;82;21512;-83
2021/06/08 04:04:51;;;;;;;3.90;2.35;;;;;;;15.85;100.00;100288.97;1711149;83;21024;-83
2021/06/08 04:07:20;;;;;;;2.58;2.20;;;;;;;15.84;100.00;100285.14;1686484;83;20953;-83
2021/06/08 04:09:48;;;;;;;2.08;1.80;;;;;;;15.82;100.00;100287.40;1711658;83;21020;-83
2021/06/08 04:12:22;;;;;;;2.87;2.33;;;;;;;15.80;100.00;100289.11;1717306;82;21481;-84
2021/06/08 04:14:49;;;;;;;2.95;2.25;;;;;;;15.80;100.00;100289.66;1702414;83;21044;-83
2021/06/08 04:17:16;;;;;;;2.45;1.70;;;;;;;15.81;100.00;100291.30;1728299;81;21486;-83
2021/06/08 04:19:44;;;;;;;2.80;2.22;;;;;;;15.82;100.00;100291.53;1756595;81;21506;-84
2021/06/08 04:22:10;;;;;;;1.72;1.60;;;;;;;15.83;100.00;100292.60;1727093;81;21840;-84
2021/06/08 04:24:36;;;;;;;2.60;1.87;;;;;;;15.87;100.00;100289.47;1756862;81;20994;-84
2021/06/08 04:27:04;;;;;;;2.22;1.92;;;;;;;15.90;100.00;100292.95;1754906;80;20960;-83
2021/06/08 04:29:30;;;;;;;1.90;1.65;;;;;;;15.98;100.00;100291.92;1752728;81;21017;-83
2021/06/08 04:31:57;;;;;;;1.95;1.77;;;;;;;16.14;100.00;100290.34;1695630;83;21062;-83
2021/06/08 04:34:23;;;;;;;2.42;1.82;;;;;;;16.39;100.00;100295.65;1722688;83;20985;-83
2021/06/08 04:36:49;;;;;;;3.85;2.00;;;;;;;16.65;100.00;100283.84;1694362;83;21058;-83
2021/06/08 04:39:16;;;;;;;2.45;1.95;;;;;;;16.86;100.00;100289.55;1719709;81;21006;-83
2021/06/08 04:41:44;;;;;;;3.00;1.85;;;;;;;17.03;100.00;100292.28;1717804;83;21525;-83
2021/06/08 04:44:17;;;;;;;4.37;2.72;;;;;;;17.17;100.00;100291.55;1680269;84;21060;-83
2021/06/08 04:46:44;;;;;;;2.37;1.75;;;;;;;17.31;100.00;100289.15;1717602;82;21085;-83
2021/06/08 04:49:15;;;;;;;1.87;1.60;;;;;;;17.44;100.00;100286.78;1720047;81;21005;-83
2021/06/08 04:51:39;;;;;;;2.27;1.60;;;;;;;17.61;100.00;100285.34;1743151;80;20985;-83
2021/06/08 04:54:06;;;;;;;3.00;1.95;;;;;;;17.82;100.00;100276.33;1729507;81;20998;-83
2021/06/08 04:56:33;;;;;;;4.50;2.10;;;;;;;18.03;99.65;100288.27;1728060;82;20981;-83
2021/06/08 04:59:01;;;;;;;3.17;1.70;;;;;;;18.28;98.33;100283.50;1694387;84;21006;-83
2021/06/08 05:01:36;;;;;;;2.15;1.42;;;;;;;18.46;96.44;100283.03;1694342;83;21009;-83
2021/06/08 05:04:08;;;;;;;2.75;1.90;;;;;;;18.60;95.40;100284.73;1694365;84;21488;-83
2021/06/08 05:06:43;;;;;;;1.85;1.27;;;;;;;18.75;94.21;100293.80;1722297;82;29563;-84
2021/06/08 05:09:16;;;;;;;1.92;1.52;;;;;;;18.90;92.27;100291.83;1722326;83;20984;-83
2021/06/08 05:11:54;;;;;;;2.70;1.75;;;;;;;19.04;90.94;100294.87;1730174;81;21037;-84
2021/06/08 05:14:21;;;;;;;3.83;1.82;;;;;;;19.16;89.81;100289.38;1724285;83;21073;-84
2021/06/08 05:16:48;;;;;;;4.47;2.37;;;;;;;19.24;88.45;100300.97;1688028;82;20998;-83
2021/06/08 05:19:20;;;;;;;2.20;1.63;;;;;;;19.25;87.64;100300.39;1732499;82;20984;-84
2021/06/08 05:21:46;;;;;;;3.17;1.80;;;;;;;19.28;87.58;100296.34;1729944;81;21424;-84
2021/06/08 05:24:14;;;;;;;1.47;1.37;;;;;;;19.37;86.37;100290.73;1726910;81;21064;-84
2021/06/08 05:26:45;;;;;;;1.87;1.70;;;;;;;19.37;86.37;100290.73;1732374;81;21053;-84
2021/06/08 05:29:14;;;;;;;2.30;1.50;;;;;;;19.39;85.79;100293.97;1732401;82;20929;-84
2021/06/08 05:31:41;;;;;;;3.67;2.55;;;;;;;19.43;85.45;100300.42;1701335;82;20999;-83
2021/06/08 05:34:08;;;;;;;2.33;1.45;;;;;;;19.50;84.85;100299.88;1699467;82;21374;-84
2021/06/08 05:36:36;;;;;;;1.60;1.50;;;;;;;19.56;84.45;100301.28;1732555;81;20977;-84
2021/06/08 05:39:07;;;;;;;3.65;1.77;;;;;;;19.63;84.32;100300.11;1734187;82;21427;-85
2021/06/08 05:41:33;;;;;;;2.30;1.98;;;;;;;19.71;83.38;100299.25;1732477;81;20999;-82
2021/06/08 05:43:59;;;;;;;3.37;1.80;;;;;;;19.87;82.33;100297.18;1728850;81;21063;-83
2021/06/08 05:46:28;;;;;;;2.72;1.92;;;;;;;19.87;82.33;100297.18;1756670;80;21018;-85
2021/06/08 05:48:55;;;;;;;2.00;1.70;;;;;;;19.98;82.02;100295.00;1756758;81;21000;-83
2021/06/08 05:51:21;;;;;;;1.95;1.70;;;;;;;20.07;81.61;100297.64;1756479;80;21007;-86
2021/06/08 05:53:47;;;;;;;1.87;1.45;;;;;;;20.15;81.37;100302.28;1754175;81;21046;-83
2021/06/08 05:56:14;;;;;;;2.30;1.60;;;;;;;20.25;81.90;100296.00;1756392;80;21072;-86
2021/06/08 05:58:41;;;;;;;1.82;1.60;;;;;;;20.35;81.55;100290.81;1729075;81;20989;-86
2021/06/08 06:01:11;;;;;;;2.33;1.47;;;;;;;20.48;81.29;100287.42;1756367;80;21401;-83
2021/06/08 06:03:38;;;;;;;2.27;1.52;;;;;;;20.60;80.48;100290.20;1756783;81;21014;-86
2021/06/08 06:06:04;;;;;;;1.35;1.17;;;;;;;20.70;79.82;100286.12;1728527;81;20941;-86
2021/06/08 06:08:32;;;;;;;1.25;1.15;;;;;;;20.83;79.19;100282.73;1756674;81;21966;-86
2021/06/08 06:11:00;;;;;;;1.35;1.25;;;;;;;20.95;79.13;100287.44;1756622;80;21032;-83
2021/06/08 06:13:29;;;;;;;1.92;1.40;;;;;;;21.04;78.17;100276.40;1736005;81;21004;-85
2021/06/08 06:15:56;;;;;;;1.98;1.55;;;;;;;21.15;77.86;100284.22;1760264;80;21015;-82
2021/06/08 06:18:22;;;;;;;2.37;1.50;;;;;;;21.23;76.61;100281.27;1760428;81;20987;-86
2021/06/08 06:20:53;;;;;;;2.00;1.75;;;;;;;21.31;76.19;100276.70;1717300;81;21071;-86
2021/06/08 06:23:20;;;;;;;2.62;1.47;;;;;;;21.41;76.19;100276.23;1760190;81;20987;-82
2021/06/08 06:25:47;;;;;;;2.33;1.32;;;;;;;21.47;75.68;100273.41;1760452;80;21201;-86
2021/06/08 06:28:15;;;;;;;3.10;2.00;;;;;;;21.54;75.67;100273.34;1759963;81;21473;-83
2021/06/08 06:30:42;;;;;;;2.98;1.75;;;;;;;21.63;74.21;100268.42;1760366;80;21619;-86
2021/06/08 06:33:08;;;;;;;1.75;1.65;;;;;;;21.69;74.79;100267.81;1760099;81;21481;-83
2021/06/08 06:35:35;;;;;;;1.47;1.30;;;;;;;21.77;74.04;100267.98;1760417;80;20999;-85
2021/06/08 06:38:07;;;;;;;2.40;1.30;;;;;;;21.80;73.44;100262.50;1760234;81;21003;-85
2021/06/08 06:40:34;;;;;;;1.90;1.35;;;;;;;21.93;74.14;100270.74;1760735;80;21023;-83
2021/06/08 06:43:03;;;;;;;4.78;2.37;;;;;;;22.09;72.33;100270.15;1760109;81;21007;-82
2021/06/08 06:45:31;;;;;;;2.00;1.50;;;;;;;22.19;72.45;100265.41;1760263;80;21462;-86
2021/06/08 06:48:04;;;;;;;1.45;1.20;;;;;;;22.32;72.30;100269.70;1761462;81;21385;-83
2021/06/08 06:50:32;;;;;;;1.47;1.37;;;;;;;22.44;71.64;100266.59;1760322;80;21006;-86
2021/06/08 06:52:58;;;;;;;3.58;1.60;;;;;;;22.52;70.37;100271.13;1760061;81;21462;-86
2021/06/08 06:55:25;;;;;;;2.17;1.75;;;;;;;22.62;71.02;100280.30;1729787;82;21037;-85
2021/06/08 06:57:55;;;;;;;2.22;1.37;;;;;;;22.76;69.73;100273.64;1731800;82;21021;-83
2021/06/08 07:00:22;;;;;;;2.83;1.67;;;;;;;22.92;69.49;100275.54;1730228;82;21503;-85
2021/06/08 07:02:50;;;;;;;2.67;1.45;;;;;;;22.99;69.05;100277.11;1760134;80;20982;-83
2021/06/08 07:05:20;;;;;;;1.70;1.52;;;;;;;23.02;67.52;100276.39;1760243;81;21056;-83
2021/06/08 07:07:46;;;;;;;1.12;1.05;;;;;;;23.12;67.18;100280.54;1740349;81;21006;-83
2021/06/08 07:10:14;;;;;;;2.08;1.55;;;;;;;23.13;66.25;100273.22;1760024;81;21051;-85
2021/06/08 07:12:41;;;;;;;2.27;1.87;;;;;;;23.12;66.28;100271.61;1760057;80;20968;-85
2021/06/08 07:15:09;;;;;;;2.87;1.62;;;;;;;23.15;66.25;100269.48;1760027;81;21466;-83
2021/06/08 07:17:37;;;;;;;2.10;1.90;;;;;;;23.20;66.44;100275.34;1760146;80;21038;-86
2021/06/08 07:20:05;;;;;;;1.92;1.67;;;;;;;23.26;67.53;100281.41;1736094;81;21321;-83
2021/06/08 07:22:32;;;;;;;2.52;1.62;;;;;;;23.32;67.19;100277.16;1760808;80;21027;-83
2021/06/08 07:25:00;;;;;;;2.20;1.65;;;;;;;23.51;67.94;100278.48;1736860;81;20911;-83
2021/06/08 07:27:26;;;;;;;2.75;1.90;;;;;;;23.63;66.87;100273.31;1760402;80;21003;-86
2021/06/08 07:29:53;;;;;;;2.17;1.72;;;;;;;23.66;65.33;100278.14;1760450;81;20999;-86
2021/06/08 07:32:37;;;;;;;4.92;1.80;;;;;;;23.66;65.58;100277.34;1760698;80;21980;-83
2021/06/08 07:35:14;;;;;;;1.92;1.50;;;;;;;23.71;65.31;100279.81;1715188;82;20934;-83
2021/06/08 07:37:47;;;;;;;1.87;1.60;;;;;;;23.83;64.67;100283.84;1751621;81;21560;-86
2021/06/08 07:40:22;;;;;;;1.27;1.17;;;;;;;23.83;64.85;100275.47;1760384;81;21469;-83
2021/06/08 07:42:52;;;;;;;1.95;1.52;;;;;;;23.90;64.36;100271.40;1739501;81;21925;-86
2021/06/08 07:45:27;;;;;;;1.82;1.67;;;;;;;24.00;63.98;100276.34;1715382;82;21041;-83
2021/06/08 07:47:54;;;;;;;2.08;1.60;;;;;;;24.03;63.72;100271.42;1740397;82;21465;-86
2021/06/08 07:50:21;;;;;;;1.75;1.52;;;;;;;23.99;63.50;100264.97;1736869;81;21084;-83
2021/06/08 07:52:53;;;;;;;2.00;1.35;;;;;;;24.03;64.86;100272.82;1736656;81;21475;-87
2021/06/08 07:55:19;;;;;;;1.80;1.35;;;;;;;24.14;63.61;100274.37;1741026;82;21011;-83
2021/06/08 07:57:46;;;;;;;2.98;1.85;;;;;;;24.26;62.85;100267.77;1740443;81;20975;-86
2021/06/08 08:00:15;;;;;;;2.40;1.92;;;;;;;24.41;62.42;100270.97;1715183;82;21018;-83
2021/06/08 08:02:41;;;;;;;2.45;1.45;;;;;;;24.59;62.19;100261.45;1740585;81;21503;-86
2021/06/08 08:05:11;;;;;;;1.67;1.55;;;;;;;24.76;61.33;100258.69;1742149;82;21481;-83
2021/06/08 08:07:38;;;;;;;2.45;1.37;;;;;;;24.98;62.22;100262.54;1715844;82;21035;-86
2021/06/08 08:10:05;;;;;;;2.33;1.37;;;;;;;25.21;62.04;100265.20;1760406;81;20989;-83
2021/06/08 08:12:35;;;;;;;1.35;1.25;;;;;;;25.36;60.68;100261.16;1735186;81;21008;-83
2021/06/08 08:15:01;;;;;;;2.70;1.67;;;;;;;25.28;59.91;100262.48;1755207;81;21479;-86
2021/06/08 08:17:27;;;;;;;1.82;1.30;;;;;;;25.21;59.46;100272.19;1741768;81;21039;-83
2021/06/08 08:19:54;;;;;;;1.65;1.30;;;;;;;25.09;58.49;100265.44;1742259;82;21015;-83
2021/06/08 08:22:20;;;;;;;2.60;1.52;;;;;;;24.91;58.09;100260.25;1741850;81;21073;-85
2021/06/08 08:24:47;;;;;;;1.87;1.30;;;;;;;24.80;60.00;100262.91;1755272;81;21491;-83
2021/06/08 08:27:14;;;;;;;3.33;1.00;;;;;;;24.88;59.85;100261.22;1754868;80;21061;-86
2021/06/08 08:29:41;;;;;;;1.72;1.27;;;;;;;25.11;58.68;100258.88;1755425;81;21065;-83
2021/06/08 08:32:08;;;;;;;1.22;1.12;;;;;;;25.29;57.18;100267.48;1754937;80;21057;-82
2021/06/08 08:34:35;;;;;;;1.40;1.10;;;;;;;25.32;56.19;100254.12;1731876;81;21041;-85
2021/06/08 08:37:02;;;;;;;1.47;1.37;;;;;;;25.17;56.59;100250.37;1754942;80;21041;-85
2021/06/08 08:39:29;;;;;;;1.37;1.07;;;;;;;25.04;55.48;100251.81;1755185;81;20981;-87
2021/06/08 08:41:57;;;;;;;1.25;1.07;;;;;;;24.96;54.83;100249.53;1731798;81;21053;-86
2021/06/08 08:44:42;;;;;;;1.95;1.17;;;;;;;24.88;54.82;100245.86;1756102;81;21005;-87
2021/06/08 08:47:26;;;;;;;1.77;1.05;;;;;;;24.75;55.64;100243.09;1741824;81;21478;-87
2021/06/08 08:49:53;;;;;;;1.00;0.80;;;;;;;24.76;56.11;100239.72;1742079;82;20986;-86
2021/06/08 08:52:21;;;;;;;1.30;0.90;;;;;;;24.85;56.65;100238.24;1741847;81;21007;-87
2021/06/08 08:54:48;;;;;;;1.62;0.80;;;;;;;25.00;56.77;100238.38;1724637;83;21009;-86
2021/06/08 08:57:18;;;;;;;2.52;1.10;;;;;;;25.16;55.22;100238.96;1731169;81;21030;-87
2021/06/08 08:59:46;;;;;;;1.50;0.90;;;;;;;25.30;53.67;100238.34;1754795;81;21033;-87
2021/06/08 09:02:12;;;;;;;0.90;0.88;;;;;;;25.42;55.27;100242.83;1754599;80;21100;-86
2021/06/08 09:04:39;;;;;;;0.93;0.78;;;;;;;25.62;54.19;100242.83;1754684;81;20998;-84
2021/06/08 09:07:05;;;;;;;1.12;0.78;;;;;;;25.83;52.35;100245.58;1715426;81;21000;-87
2021/06/08 09:09:33;;;;;;;1.15;0.82;;;;;;;25.90;49.64;100247.06;1631474;85;21571;-84
2021/06/08 09:12:04;;;;;;;2.05;1.67;;;;;;;25.89;51.33;100244.04;1681411;83;21069;-84
2021/06/08 09:14:28;;;;;;;2.10;1.30;;;;;;;25.92;50.27;100240.48;1737619;82;21020;-87
2021/06/08 09:16:55;;;;;;;0.72;0.60;;;;;;;25.75;49.25;100241.92;1737525;81;21447;-84
2021/06/08 09:19:22;;;;;;;0.72;0.60;;;;;;;25.63;49.44;100243.02;1723659;81;20994;-87
2021/06/08 09:21:55;;;;;;;1.15;0.93;;;;;;;25.58;51.00;100240.59;1723807;81;21046;-87
2021/06/08 09:24:25;;;;;;;0.78;0.78;;;;;;;25.70;51.26;100243.09;1723372;82;21448;-84
2021/06/08 09:26:59;;;;;;;0.50;0.50;;;;;;;25.90;48.34;100235.88;1721344;81;21093;-84
2021/06/08 09:29:38;;;;;;;0.72;0.65;;;;;;;26.12;48.01;100231.22;1724904;81;21328;-84
2021/06/08 09:32:23;;;;;;;1.17;0.80;;;;;;;26.34;48.80;100236.34;1753206;81;21005;-88
2021/06/08 09:34:59;;;;;;;1.05;0.72;;;;;;;26.51;45.70;100235.64;1744963;82;21070;-87
2021/06/08 09:37:41;;;;;;;1.90;1.10;;;;;;;26.65;45.77;100236.91;1726944;82;21029;-87
2021/06/08 09:40:22;;;;;;;1.55;0.98;;;;;;;26.72;45.86;100234.14;1725749;82;21009;-87
2021/06/08 09:43:08;;;;;;;1.40;0.85;;;;;;;26.60;46.61;100228.28;1726727;81;20958;-87
2021/06/08 09:45:49;;;;;;;0.82;0.82;;;;;;;26.50;48.39;100228.41;1719065;82;21037;-85
2021/06/08 09:48:16;;;;;;;1.40;0.87;;;;;;;26.41;48.12;100218.19;1727222;82;21061;-84
2021/06/08 09:50:43;;;;;;;1.17;0.78;;;;;;;26.55;48.45;100212.65;1727152;82;20994;-85
2021/06/08 09:53:26;;;;;;;0.98;0.70;;;;;;;26.67;46.97;100214.91;1750405;81;21634;-85
2021/06/08 09:56:06;;;;;;;0.80;0.80;;;;;;;26.78;46.95;100212.92;1722456;82;21849;-85
2021/06/08 09:58:38;;;;;;;1.25;1.00;;;;;;;26.85;46.98;100218.56;1752891;81;20990;-84
2021/06/08 10:01:23;;;;;;;1.02;1.00;;;;;;;26.75;47.69;100208.91;1746301;81;20980;-84
2021/06/08 10:03:57;;;;;;;1.70;1.00;;;;;;;26.60;47.11;100219.27;1726339;83;21034;-84
2021/06/08 10:06:35;;;;;;;1.20;1.07;;;;;;;26.42;48.08;100218.38;1726369;81;21002;-84
2021/06/08 10:09:07;;;;;;;1.80;1.25;;;;;;;26.21;48.87;100219.66;1697208;83;21450;-84
2021/06/08 10:11:34;;;;;;;;;;;;;;;25.94;48.97;100201.72;1726322;81;21030;-85
2021/06/08 10:14:11;;;;;;;1.10;1.00;;;;;;;25.69;49.62;100212.11;1713054;83;20162;-84
2021/06/08 10:16:38;;;;;;;1.25;1.00;;;;;;;25.44;51.60;100204.09;1703213;82;21516;-85
2021/06/08 10:19:05;;;;;;;1.35;1.12;;;;;;;25.01;58.92;100231.62;1730117;82;21025;-88
2021/06/08 10:24:24;;;;;;;0.82;0.80;;;;;;;22.95;67.58;100251.14;1827186;77;22246;-86
2021/06/08 10:26:53;;;;;;;2.42;1.40;;;;;;;21.77;72.50;100243.76;1783266;79;21956;-85
2021/06/08 10:29:23;;;;;;;1.12;1.00;;;;;;;20.61;75.64;100236.87;1779750;79;21049;-84
2021/06/08 10:31:50;;;;;;;1.67;0.88;;;;;;;19.76;79.88;100239.42;1778383;80;20986;-85
2021/06/08 10:34:17;;;;;;;1.35;1.10;;;;;;;19.28;82.95;100236.78;1779383;80;20978;-83
2021/06/08 10:36:44;;;;;;;1.82;1.47;;;;;;;19.00;85.67;100235.80;1773328;79;20966;-85
2021/06/08 10:39:13;;;;;;;1.60;1.50;;;;;;;18.84;87.23;100228.15;1749146;82;20997;-85
2021/06/08 10:43:30;;;;;;;1.98;1.00;;;;;;;18.91;92.31;100224.80;1826871;77;22610;-85
2021/06/08 10:45:56;;;;;;;1.00;0.88;;;;;;;18.88;93.34;100227.68;1781605;79;21019;-85
2021/06/08 10:48:31;;;;;;;1.77;1.07;;;;;;;18.93;94.98;100228.62;1756027;81;21022;-83
2021/06/08 10:51:14;;;;;;;2.50;1.37;;;;;;;18.97;95.16;100227.61;1755955;80;21002;-83
2021/06/08 10:53:42;;;;;;;4.03;2.17;;;;;;;19.00;95.87;100226.12;1668096;84;20984;-81
2021/06/08 10:56:29;;;;;;;2.52;1.62;;;;;;;19.17;97.56;100228.70;1703909;81;21070;-84
2021/06/08 10:59:05;;;;;;;2.83;1.80;;;;;;;19.43;98.47;100233.92;1724051;83;21054;-83
2021/06/08 11:04:09;;;;;;;1.87;1.07;;;;;;;19.67;98.17;100235.95;1695869;84;21512;-81
2021/06/08 11:06:55;;;;;;;0.60;0.60;;;;;;;19.90;97.71;100225.77;1692806;84;21073;-84
2021/06/08 11:09:32;;;;;;;0.80;0.80;;;;;;;20.12;95.63;100215.58;1709478;83;21062;-84
2021/06/08 11:12:10;;;;;;;0.62;0.62;;;;;;;20.38;93.83;100207.44;1710336;82;21353;-84
2021/06/08 11:14:57;;;;;;;0.60;0.50;;;;;;;20.52;89.33;100205.05;1721362;83;21041;-84
2021/06/08 11:17:39;;;;;;;0.40;0.40;;;;;;;20.52;85.23;100205.05;1702938;83;21048;-82
2021/06/08 11:20:17;;;;;;;0.62;0.60;;;;;;;20.49;82.71;100200.22;1692482;84;21926;-82
2021/06/08 11:22:54;;;;;;;1.07;0.30;;;;;;;20.42;75.50;100201.39;1692241;83;21017;-82
2021/06/08 11:25:43;;;;;;;0.62;0.30;;;;;;;20.35;74.09;100197.86;1715486;83;21054;-83
2021/06/08 11:28:17;;;;;;;0.40;0.37;;;;;;;20.30;73.20;100197.27;1691530;84;21440;-85
2021/06/08 11:31:00;;;;;;;0.30;0.30;;;;;;;20.16;72.03;100180.44;1708890;82;21428;-82
2021/06/08 11:33:29;;;;;;;0.35;0.28;;;;;;;20.16;72.03;100180.44;1682223;83;21015;-82
2021/06/08 11:35:56;;;;;;;0.65;0.65;;;;;;;20.09;71.87;100170.52;1687075;82;21393;-82
2021/06/08 11:38:34;;;;;;;0.30;0.30;;;;;;;20.03;71.77;100177.48;1716129;83;21054;-83
2021/06/08 11:41:08;;;;;;;0.35;0.35;;;;;;;19.98;72.14;100164.66;1715293;83;21445;-83